createdAt,value
2018-09-25T00:55:45.703Z,21.9
2018-09-25T00:56:34.403Z,21.9
2018-09-25T00:57:25.226Z,21.9
2018-09-25T00:58:14.763Z,21.9
2018-09-25T00:59:05.114Z,21.9
2018-09-25T00:59:54.309Z,21.9
2018-09-25T01:00:45.793Z,21.9
2018-09-25T01:01:35.279Z,21.9
2018-09-25T01:02:25.334Z,21.9
2018-09-25T01:03:15.177Z,21.9
2018-09-25T01:04:05.488Z,21.9
2018-09-25T01:04:55.518Z,21.9
2018-09-25T01:05:45.025Z,22
2018-09-25T01:06:35.462Z,22
2018-09-25T01:07:25.212Z,22
2018-09-25T01:08:15.469Z,22
2018-09-25T01:09:05.812Z,22.1
2018-09-25T01:09:55.306Z,22
2018-09-25T01:10:45.122Z,22
2018-09-25T01:11:35.795Z,22.1
2018-09-25T01:12:25.797Z,22.1
2018-09-25T01:13:15.560Z,22
2018-09-25T01:14:05.344Z,22.1
2018-09-25T01:14:56.037Z,22.1
2018-09-25T01:15:46.315Z,22.1
2018-09-25T01:16:36.427Z,22.1
2018-09-25T01:17:26.459Z,22.1
2018-09-25T01:18:15.933Z,22.1
2018-09-25T01:19:07.574Z,22.1
2018-09-25T01:19:56.632Z,22.1
2018-09-25T01:20:46.436Z,22.1
2018-09-25T01:21:35.345Z,22.1
2018-09-25T01:22:25.690Z,22.1
2018-09-25T01:23:16.572Z,22.1
2018-09-25T01:24:06.661Z,22.1
2018-09-25T01:24:56.829Z,22.1
2018-09-25T01:25:47.071Z,22.1
2018-09-25T01:26:36.566Z,22
2018-09-25T01:27:26.974Z,22
2018-09-25T01:28:15.601Z,22
2018-09-25T01:29:06.788Z,22
2018-09-25T01:29:57.418Z,22
2018-09-25T01:30:46.359Z,22
2018-09-25T01:31:37.241Z,22
2018-09-25T01:32:27.348Z,22
2018-09-25T01:33:16.818Z,22
2018-09-25T01:34:07.398Z,22
2018-09-25T01:34:56.999Z,22
2018-09-25T01:35:48.072Z,22
2018-09-25T01:36:37.826Z,22
2018-09-25T01:37:27.325Z,22
2018-09-25T01:38:18.299Z,22
2018-09-25T01:39:08.060Z,22
2018-09-25T01:39:58.403Z,22
2018-09-25T01:40:47.504Z,22
2018-09-25T01:41:37.990Z,22
2018-09-25T01:42:28.025Z,22
2018-09-25T01:43:17.842Z,22
2018-09-25T01:44:08.150Z,22
2018-09-25T01:44:57.648Z,22
2018-09-25T01:45:48.554Z,22
2018-09-25T01:46:39.005Z,22
2018-09-25T01:47:28.522Z,22
2018-09-25T01:48:19.323Z,22
2018-09-25T01:49:08.843Z,21.9
2018-09-25T01:49:58.655Z,22
2018-09-25T01:50:48.364Z,21.9
2018-09-25T01:51:38.999Z,21.9
2018-09-25T01:52:29.619Z,21.9
2018-09-25T01:53:18.884Z,21.9
2018-09-25T01:54:08.602Z,21.9
2018-09-25T01:54:59.335Z,21.9
2018-09-25T01:55:49.362Z,21.9
2018-09-25T01:56:38.596Z,21.9
2018-09-25T01:57:29.517Z,21.9
2018-09-25T01:58:18.959Z,21.9
2018-09-25T01:59:09.312Z,21.9
2018-09-25T01:59:59.284Z,21.9
2018-09-25T02:00:49.404Z,21.9
2018-09-25T02:01:39.446Z,21.9
2018-09-25T02:02:29.862Z,21.9
2018-09-25T02:03:19.638Z,21.9
2018-09-25T02:04:09.954Z,21.9
2018-09-25T02:04:59.462Z,21.9
2018-09-25T02:05:49.514Z,21.9
2018-09-25T02:06:40.154Z,21.9
2018-09-25T02:07:29.132Z,21.9
2018-09-25T02:08:20.541Z,21.9
2018-09-25T02:09:10.038Z,21.9
2018-09-25T02:10:00.418Z,21.9
2018-09-25T02:10:49.851Z,21.9
2018-09-25T02:11:40.216Z,21.9
2018-09-25T02:12:30.004Z,21.9
2018-09-25T02:13:20.883Z,21.9
2018-09-25T02:14:10.936Z,21.9
2018-09-25T02:15:00.449Z,21.9
2018-09-25T02:15:50.186Z,21.8
2018-09-25T02:16:40.644Z,21.8
2018-09-25T02:17:30.677Z,21.8
2018-09-25T02:18:20.790Z,21.9
2018-09-25T02:19:11.589Z,21.8
2018-09-25T02:20:00.808Z,21.9
2018-09-25T02:20:51.224Z,21.9
2018-09-25T02:21:40.968Z,21.9
2018-09-25T02:22:31.628Z,21.9
2018-09-25T02:23:21.931Z,21.8
2018-09-25T02:24:11.066Z,21.8
2018-09-25T02:25:01.784Z,21.8
2018-09-25T02:25:51.333Z,21.8
2018-09-25T02:26:40.300Z,21.8
2018-09-25T02:27:30.350Z,21.8
2018-09-25T02:28:20.665Z,21.8
2018-09-25T02:29:10.775Z,21.8
2018-09-25T02:29:59.359Z,21.8
2018-09-25T02:30:49.692Z,21.8
2018-09-25T02:31:41.191Z,21.8
2018-09-25T02:32:30.492Z,21.8
2018-09-25T02:33:21.370Z,21.8
2018-09-25T02:34:10.135Z,21.8
2018-09-25T02:35:02.263Z,21.8
2018-09-25T02:35:52.064Z,21.8
2018-09-25T02:36:42.591Z,21.8
2018-09-25T02:37:32.445Z,21.8
2018-09-25T02:38:21.944Z,21.8
2018-09-25T02:39:12.577Z,21.8
2018-09-25T02:40:02.407Z,21.8
2018-09-25T02:40:52.716Z,21.8
2018-09-25T02:41:42.758Z,21.8
2018-09-25T02:42:31.917Z,21.8
2018-09-25T02:43:22.583Z,21.8
2018-09-25T02:44:13.279Z,21.8
2018-09-25T02:45:03.007Z,21.8
2018-09-25T02:45:52.233Z,21.8
2018-09-25T02:46:43.674Z,21.8
2018-09-25T02:47:33.181Z,21.8
2018-09-25T02:48:23.256Z,21.8
2018-09-25T02:49:13.549Z,21.8
2018-09-25T02:50:02.788Z,21.8
2018-09-25T02:50:53.448Z,21.8
2018-09-25T02:51:43.749Z,21.8
2018-09-25T02:52:33.295Z,21.8
2018-09-25T02:53:23.623Z,21.8
2018-09-25T02:54:13.893Z,21.8
2018-09-25T02:55:02.093Z,21.8
2018-09-25T02:55:53.815Z,21.8
2018-09-25T02:56:43.880Z,21.8
2018-09-25T02:57:33.916Z,21.8
2018-09-25T02:58:24.011Z,21.8
2018-09-25T02:59:13.806Z,21.8
2018-09-25T03:00:03.596Z,21.8
2018-09-25T03:00:54.307Z,21.8
2018-09-25T03:01:43.822Z,21.8
2018-09-25T03:02:34.311Z,21.8
2018-09-25T03:03:24.353Z,21.8
2018-09-25T03:04:14.492Z,21.8
2018-09-25T03:05:04.747Z,21.8
2018-09-25T03:05:54.482Z,21.8
2018-09-25T03:06:44.959Z,21.8
2018-09-25T03:07:34.743Z,21.8
2018-09-25T03:08:25.031Z,21.8
2018-09-25T03:09:15.108Z,21.7
2018-09-25T03:10:04.919Z,21.7
2018-09-25T03:10:54.952Z,21.8
2018-09-25T03:11:44.727Z,21.8
2018-09-25T03:12:35.688Z,21.8
2018-09-25T03:13:24.536Z,21.7
2018-09-25T03:14:15.260Z,21.7
2018-09-25T03:15:05.280Z,21.7
2018-09-25T03:15:55.327Z,21.7
2018-09-25T03:16:45.094Z,21.7
2018-09-25T03:17:35.732Z,21.7
2018-09-25T03:18:25.585Z,21.7
2018-09-25T03:19:16.431Z,21.7
2018-09-25T03:20:05.854Z,21.7
2018-09-25T03:20:54.842Z,21.7
2018-09-25T03:21:45.553Z,21.7
2018-09-25T03:22:35.903Z,21.7
2018-09-25T03:23:25.355Z,21.7
2018-09-25T03:24:15.510Z,21.7
2018-09-25T03:25:05.809Z,21.8
2018-09-25T03:25:56.116Z,21.8
2018-09-25T03:26:46.132Z,21.8
2018-09-25T03:27:35.620Z,21.7
2018-09-25T03:28:25.715Z,21.8
2018-09-25T03:29:16.295Z,21.8
2018-09-25T03:30:06.661Z,21.7
2018-09-25T03:30:56.424Z,21.7
2018-09-25T03:31:46.354Z,21.7
2018-09-25T03:32:36.727Z,21.7
2018-09-25T03:33:26.018Z,21.6
2018-09-25T03:34:16.715Z,21.6
2018-09-25T03:35:06.136Z,21.6
2018-09-25T03:35:56.791Z,21.6
2018-09-25T03:36:46.584Z,21.6
2018-09-25T03:37:37.011Z,21.6
2018-09-25T03:38:27.039Z,21.6
2018-09-25T03:39:17.221Z,21.6
2018-09-25T03:40:06.966Z,21.6
2018-09-25T03:40:57.541Z,21.6
2018-09-25T03:41:47.183Z,21.6
2018-09-25T03:42:36.740Z,21.6
2018-09-25T03:43:27.050Z,21.6
2018-09-25T03:44:16.917Z,21.6
2018-09-25T03:45:07.216Z,21.6
2018-09-25T03:45:57.650Z,21.5
2018-09-25T03:46:47.291Z,21.6
2018-09-25T03:47:37.071Z,21.6
2018-09-25T03:48:26.873Z,21.6
2018-09-25T05:24:36.668Z,21.3
2018-09-25T05:25:26.358Z,21.3
2018-09-25T05:26:16.199Z,21.3
2018-09-25T05:27:06.270Z,21.2
2018-09-25T05:27:55.705Z,21.3
2018-09-25T05:28:46.634Z,21.2
2018-09-25T05:29:36.195Z,21.3
2018-09-25T05:30:26.371Z,21.3
2018-09-25T05:31:16.299Z,21.3
2018-09-25T05:32:05.259Z,21.3
2018-09-25T05:32:56.417Z,21.3
2018-09-25T05:33:45.624Z,21.3
2018-09-25T05:34:36.297Z,21.3
2018-09-25T05:35:26.896Z,21.3
2018-09-25T05:36:16.033Z,21.3
2018-09-25T05:37:06.128Z,21.3
2018-09-25T05:37:57.028Z,21.3
2018-09-25T05:38:47.081Z,21.3
2018-09-25T05:39:36.896Z,21.4
2018-09-25T05:40:27.501Z,21.4
2018-09-25T05:41:17.304Z,21.4
2018-09-25T05:42:07.571Z,21.4
2018-09-25T05:42:57.099Z,21.4
2018-09-25T05:43:47.450Z,21.4
2018-09-25T05:44:37.786Z,21.4
2018-09-25T05:45:27.268Z,21.4
2018-09-25T05:46:17.662Z,21.4
2018-09-25T05:47:07.686Z,21.4
2018-09-25T05:47:57.929Z,21.4
2018-09-25T05:48:49.870Z,21.4
2018-09-25T05:49:37.516Z,21.4
2018-09-25T05:50:28.424Z,21.4
2018-09-25T05:51:18.205Z,21.4
2018-09-25T05:52:07.816Z,21.4
2018-09-25T05:52:57.975Z,21.4
2018-09-25T05:53:49.239Z,21.4
2018-09-25T05:54:38.524Z,21.4
2018-09-25T05:55:28.488Z,21.4
2018-09-25T05:56:18.169Z,21.4
2018-09-25T05:57:08.483Z,21.4
2018-09-25T05:57:59.096Z,21.4
2018-09-25T05:58:48.876Z,21.4
2018-09-25T05:59:38.644Z,21.4
2018-09-25T06:00:28.988Z,21.4
2018-09-25T06:01:19.368Z,21.4
2018-09-25T06:02:09.160Z,21.4
2018-09-25T06:02:59.131Z,21.4
2018-09-25T06:03:48.653Z,21.4
2018-09-25T06:04:39.035Z,21.4
2018-09-25T06:05:29.302Z,21.4
2018-09-25T06:06:18.911Z,21.4
2018-09-25T06:07:09.475Z,21.4
2018-09-25T06:07:59.071Z,21.4
2018-09-25T06:08:49.308Z,21.4
2018-09-25T06:09:40.147Z,21.4
2018-09-25T06:10:29.160Z,21.4
2018-09-25T06:11:20.083Z,21.4
2018-09-25T06:12:09.271Z,21.4
2018-09-25T06:12:58.876Z,21.4
2018-09-25T06:13:49.662Z,21.4
2018-09-25T06:14:39.307Z,21.4
2018-09-25T06:15:29.608Z,21.4
2018-09-25T06:16:19.372Z,21.4
2018-09-25T06:17:09.134Z,21.4
2018-09-25T06:17:59.512Z,21.4
2018-09-25T06:18:49.728Z,21.4
2018-09-25T06:19:39.944Z,21.4
2018-09-25T06:20:30.548Z,21.4
2018-09-25T06:21:20.262Z,21.5
2018-09-25T06:22:10.009Z,21.4
2018-09-25T06:23:01.373Z,21.5
2018-09-25T06:23:50.172Z,21.5
2018-09-25T06:24:40.492Z,21.4
2018-09-25T06:25:30.579Z,21.4
2018-09-25T06:26:20.668Z,21.4
2018-09-25T06:27:10.452Z,21.4
2018-09-25T06:28:00.532Z,21.4
2018-09-25T06:28:52.473Z,21.4
2018-09-25T06:29:40.697Z,21.5
2018-09-25T06:30:31.529Z,21.5
2018-09-25T06:31:21.840Z,21.5
2018-09-25T06:32:10.933Z,21.5
2018-09-25T06:33:00.837Z,21.4
2018-09-25T06:33:51.306Z,21.4
2018-09-25T06:34:42.406Z,21.4
2018-09-25T06:35:31.313Z,21.4
2018-09-25T06:36:21.975Z,21.4
2018-09-25T06:37:11.725Z,21.4
2018-09-25T06:38:01.020Z,21.4
2018-09-25T06:38:51.871Z,21.4
2018-09-25T06:39:41.647Z,21.4
2018-09-25T06:40:31.506Z,21.4
2018-09-25T06:41:22.309Z,21.4
2018-09-25T06:42:11.820Z,21.4
2018-09-25T06:43:02.138Z,21.4
2018-09-25T06:43:51.423Z,21.4
2018-09-25T06:44:40.819Z,21.5
2018-09-25T06:45:32.077Z,21.4
2018-09-25T06:46:23.174Z,21.4
2018-09-25T06:47:13.142Z,21.4
2018-09-25T06:48:02.286Z,21.4
2018-09-25T06:48:52.591Z,21.4
2018-09-25T06:49:42.620Z,21.4
2018-09-25T06:50:31.838Z,21.4
2018-09-25T06:51:22.572Z,21.4
2018-09-25T06:52:12.308Z,21.4
2018-09-25T06:53:02.627Z,21.4
2018-09-25T06:53:52.352Z,21.4
2018-09-25T06:54:43.573Z,21.4
2018-09-25T06:55:32.790Z,21.4
2018-09-25T06:56:22.268Z,21.4
2018-09-25T06:57:13.283Z,21.4
2018-09-25T06:58:01.640Z,21.4
2018-09-25T06:58:53.371Z,21.4
2018-09-25T06:59:43.702Z,21.5
2018-09-25T07:00:33.516Z,21.4
2018-09-25T07:01:23.560Z,21.5
2018-09-25T07:02:13.925Z,21.6
2018-09-25T07:03:03.725Z,21.6
2018-09-25T07:03:53.695Z,21.7
2018-09-25T07:04:43.474Z,21.7
2018-09-25T07:05:33.874Z,21.7
2018-09-25T07:06:23.079Z,21.8
2018-09-25T07:07:13.766Z,21.8
2018-09-25T07:08:03.499Z,21.8
2018-09-25T07:08:53.958Z,21.8
2018-09-25T07:09:45.747Z,21.8
2018-09-25T07:10:37.361Z,21.8
2018-09-25T07:11:24.341Z,21.8
2018-09-25T07:12:14.631Z,21.8
2018-09-25T07:13:03.848Z,21.8
2018-09-25T07:13:53.911Z,21.8
2018-09-25T07:14:43.771Z,21.8
2018-09-25T07:15:34.298Z,21.8
2018-09-25T07:16:23.778Z,21.8
2018-09-25T07:17:14.773Z,21.8
2018-09-25T07:18:06.125Z,21.8
2018-09-25T07:18:54.531Z,21.8
2018-09-25T07:19:44.112Z,21.8
2018-09-25T07:20:34.670Z,21.8
2018-09-25T07:21:24.988Z,21.8
2018-09-25T07:22:14.813Z,21.8
2018-09-25T07:23:05.048Z,21.9
2018-09-25T07:23:54.598Z,21.9
2018-09-25T07:24:47.082Z,21.9
2018-09-25T07:25:34.855Z,22
2018-09-25T07:26:24.513Z,22
2018-09-25T07:27:14.912Z,22
2018-09-25T07:28:05.508Z,22.1
2018-09-25T07:28:55.256Z,22
2018-09-25T07:29:45.074Z,22
2018-09-25T07:30:35.374Z,22
2018-09-25T07:31:25.737Z,21.9
2018-09-25T07:32:14.693Z,21.9
2018-09-25T07:33:06.145Z,22
2018-09-25T07:33:55.114Z,22
2018-09-25T07:34:45.738Z,21.9
2018-09-25T07:35:35.852Z,21.9
2018-09-25T07:36:26.115Z,21.9
2018-09-25T07:37:15.942Z,21.9
2018-09-25T07:38:05.924Z,21.9
2018-09-25T07:38:55.247Z,21.9
2018-09-25T07:39:44.013Z,21.9
2018-09-25T07:40:34.362Z,22
2018-09-25T07:41:24.617Z,22
2018-09-25T07:42:13.932Z,22
2018-09-25T07:43:04.679Z,22
2018-09-25T07:43:55.342Z,22.1
2018-09-25T07:44:45.467Z,22
2018-09-25T07:45:34.724Z,22.1
2018-09-25T07:46:25.841Z,22.1
2018-09-25T07:47:13.023Z,22
2018-09-25T07:48:07.221Z,22
2018-09-25T07:48:56.761Z,22
2018-09-25T07:49:46.559Z,22.1
2018-09-25T07:50:36.646Z,22
2018-09-25T07:51:26.679Z,22
2018-09-25T07:52:17.582Z,22
2018-09-25T07:53:07.577Z,22.1
2018-09-25T07:53:57.850Z,22.1
2018-09-25T07:54:47.681Z,22.1
2018-09-25T07:55:38.438Z,22.2
2018-09-25T07:56:28.369Z,22.1
2018-09-25T07:57:18.077Z,22.1
2018-09-25T07:58:08.111Z,22.1
2018-09-25T07:58:56.258Z,22.1
2018-09-25T07:59:46.988Z,22.2
2018-09-25T08:00:37.413Z,22.1
2018-09-25T08:01:27.133Z,22.2
2018-09-25T08:02:17.496Z,22.2
2018-09-25T08:03:08.118Z,22.2
2018-09-25T08:03:57.995Z,22.2
2018-09-25T08:04:47.108Z,22.2
2018-09-25T08:05:38.542Z,22.3
2018-09-25T08:06:28.048Z,22.2
2018-09-25T08:07:17.855Z,22.3
2018-09-25T08:08:08.235Z,22.3
2018-09-25T08:08:58.384Z,22.3
2018-09-25T08:09:47.900Z,22.2
2018-09-25T08:10:39.277Z,22.2
2018-09-25T08:11:28.250Z,22.2
2018-09-25T08:12:17.857Z,22.2
2018-09-25T08:13:07.247Z,22.3
2018-09-25T08:13:57.687Z,22.3
2018-09-25T08:14:48.358Z,22.3
2018-09-25T08:15:39.256Z,22.3
2018-09-25T08:16:28.361Z,22.3
2018-09-25T08:17:18.935Z,22.3
2018-09-25T08:18:09.224Z,22.3
2018-09-25T08:18:58.015Z,22.3
2018-09-25T08:19:49.435Z,22.3
2018-09-25T08:20:38.078Z,22.3
2018-09-25T08:21:28.394Z,22.3
2018-09-25T08:22:19.554Z,22.3
2018-09-25T08:23:09.605Z,22.4
2018-09-25T08:23:58.930Z,22.4
2018-09-25T08:24:49.257Z,22.4
2018-09-25T08:25:39.545Z,22.4
2018-09-25T08:26:29.870Z,22.4
2018-09-25T08:27:19.637Z,22.4
2018-09-25T08:28:09.219Z,22.4
2018-09-25T08:29:00.302Z,22.4
2018-09-25T08:29:51.752Z,22.4
2018-09-25T08:30:40.222Z,22.4
2018-09-25T08:31:29.977Z,22.4
2018-09-25T08:32:19.691Z,22.4
2018-09-25T08:33:09.579Z,22.4
2018-09-25T08:34:00.934Z,22.4
2018-09-25T08:34:50.243Z,22.4
2018-09-25T08:35:40.556Z,22.4
2018-09-25T08:36:30.106Z,22.4
2018-09-25T08:37:20.457Z,22.4
2018-09-25T08:38:10.454Z,22.4
2018-09-25T08:39:02.219Z,22.4
2018-09-25T08:39:49.897Z,22.5
2018-09-25T08:40:40.998Z,22.4
2018-09-25T08:41:30.425Z,22.5
2018-09-25T08:42:21.062Z,22.4
2018-09-25T08:43:10.361Z,22.4
2018-09-25T08:44:01.268Z,22.4
2018-09-25T08:44:51.224Z,22.4
2018-09-25T08:45:40.626Z,22.5
2018-09-25T08:46:31.049Z,22.5
2018-09-25T08:47:20.606Z,22.5
2018-09-25T08:48:10.698Z,22.5
2018-09-25T08:49:01.608Z,22.5
2018-09-25T08:49:51.577Z,22.5
2018-09-25T08:50:41.380Z,22.5
2018-09-25T08:51:31.436Z,22.6
2018-09-25T08:52:21.753Z,22.6
2018-09-25T08:53:10.118Z,22.6
2018-09-25T08:54:01.992Z,22.6
2018-09-25T08:54:51.422Z,22.6
2018-09-25T08:55:41.778Z,22.6
2018-09-25T08:56:32.138Z,22.6
2018-09-25T08:57:21.915Z,22.6
2018-09-25T08:58:11.938Z,22.6
2018-09-25T08:59:02.327Z,22.5
2018-09-25T08:59:51.809Z,22.5
2018-09-25T09:00:42.440Z,22.6
2018-09-25T09:01:32.499Z,22.6
2018-09-25T09:02:22.577Z,22.6
2018-09-25T09:03:12.581Z,22.6
2018-09-25T09:04:02.209Z,22.6
2018-09-25T09:04:52.262Z,22.6
2018-09-25T09:05:43.087Z,22.6
2018-09-25T09:06:33.122Z,22.6
2018-09-25T09:07:22.386Z,22.6
2018-09-25T09:08:12.374Z,22.6
2018-09-25T09:09:03.076Z,22.6
2018-09-25T09:09:53.084Z,22.6
2018-09-25T09:10:42.942Z,22.6
2018-09-25T09:11:32.432Z,22.6
2018-09-25T09:12:23.275Z,22.6
2018-09-25T09:13:13.368Z,22.6
2018-09-25T09:14:02.871Z,22.6
2018-09-25T09:14:52.891Z,22.6
2018-09-25T09:15:42.097Z,22.6
2018-09-25T09:16:33.331Z,22.6
2018-09-25T09:17:22.564Z,22.6
2018-09-25T09:18:13.196Z,22.6
2018-09-25T09:19:03.226Z,22.6
2018-09-25T09:19:55.543Z,22.6
2018-09-25T09:20:43.041Z,22.6
2018-09-25T09:21:33.468Z,22.6
2018-09-25T09:22:23.513Z,22.6
2018-09-25T09:39:15.689Z,22.5
2018-09-25T09:40:04.807Z,22.5
2018-09-25T09:40:54.900Z,22.5
2018-09-25T09:41:52.562Z,22.6
2018-09-25T09:42:35.169Z,22.5
2018-09-25T09:43:25.519Z,22.5
2018-09-25T09:44:15.062Z,22.6
2018-09-25T09:45:05.712Z,22.6
2018-09-25T09:45:55.759Z,22.6
2018-09-25T09:46:45.817Z,22.6
2018-09-25T09:47:34.972Z,22.6
2018-09-25T09:48:25.651Z,22.6
2018-09-25T09:49:15.954Z,22.6
2018-09-25T09:50:06.603Z,22.7
2018-09-25T09:50:55.752Z,22.7
2018-09-25T09:51:45.847Z,22.7
2018-09-25T09:52:35.713Z,22.7
2018-09-25T09:53:25.675Z,22.7
2018-09-25T09:54:14.933Z,22.7
2018-09-25T09:55:06.449Z,22.7
2018-09-25T09:55:54.422Z,22.8
2018-09-25T09:56:46.224Z,22.8
2018-09-25T09:57:35.701Z,22.8
2018-09-25T09:58:25.733Z,22.8
2018-09-25T09:59:16.671Z,22.7
2018-09-25T10:00:06.496Z,22.8
2018-09-25T10:00:56.515Z,22.8
2018-09-25T10:01:46.019Z,22.8
2018-09-25T10:02:36.958Z,22.8
2018-09-25T10:03:26.678Z,22.8
2018-09-25T10:04:16.306Z,22.7
2018-09-25T10:05:07.435Z,22.7
2018-09-25T10:05:57.608Z,22.7
2018-09-25T10:06:48.561Z,22.7
2018-09-25T10:07:37.030Z,22.7
2018-09-25T10:08:27.388Z,22.8
2018-09-25T10:09:17.471Z,22.7
2018-09-25T10:10:07.447Z,22.8
2018-09-25T10:10:56.515Z,22.8
2018-09-25T10:11:46.565Z,22.8
2018-09-25T10:12:39.006Z,22.8
2018-09-25T10:13:26.667Z,22.8
2018-09-25T10:14:17.125Z,22.8
2018-09-25T10:15:07.437Z,22.8
2018-09-25T10:15:57.405Z,22.8
2018-09-25T10:16:46.627Z,22.8
2018-09-25T10:17:37.090Z,22.8
2018-09-25T10:18:26.724Z,22.8
2018-09-25T10:19:18.176Z,22.8
2018-09-25T10:20:07.671Z,22.8
2018-09-25T10:20:57.603Z,22.8
2018-09-25T10:21:47.883Z,22.8
2018-09-25T10:22:37.643Z,22.8
2018-09-25T10:23:28.048Z,22.8
2018-09-25T10:24:17.305Z,22.8
2018-09-25T10:25:08.165Z,22.8
2018-09-25T10:25:57.975Z,22.8
2018-09-25T10:26:48.363Z,22.8
2018-09-25T10:27:38.921Z,22.8
2018-09-25T10:28:27.821Z,22.8
2018-09-25T10:29:18.424Z,22.8
2018-09-25T10:30:08.798Z,22.9
2018-09-25T10:30:57.708Z,22.8
2018-09-25T10:31:48.383Z,22.9
2018-09-25T10:32:38.420Z,22.8
2018-09-25T10:33:28.531Z,22.8
2018-09-25T10:34:19.976Z,22.9
2018-09-25T10:35:08.895Z,22.9
2018-09-25T10:35:58.495Z,22.9
2018-09-25T10:36:49.055Z,22.8
2018-09-25T10:37:38.268Z,22.9
2018-09-25T10:38:29.154Z,22.9
2018-09-25T10:39:19.192Z,22.9
2018-09-25T10:40:08.783Z,22.9
2018-09-25T10:41:00.136Z,22.9
2018-09-25T10:41:49.388Z,22.9
2018-09-25T10:42:39.797Z,22.9
2018-09-25T10:43:29.220Z,22.9
2018-09-25T10:44:18.829Z,22.9
2018-09-25T10:45:09.592Z,22.9
2018-09-25T10:46:00.272Z,22.9
2018-09-25T10:46:49.975Z,22.9
2018-09-25T10:47:38.732Z,22.9
2018-09-25T10:48:29.797Z,22.9
2018-09-25T10:49:19.721Z,22.9
2018-09-25T10:50:09.652Z,22.9
2018-09-25T10:50:59.930Z,22.9
2018-09-25T10:51:50.352Z,22.9
2018-09-25T10:52:40.127Z,22.9
2018-09-25T10:53:30.162Z,22.9
2018-09-25T10:54:20.517Z,22.9
2018-09-25T10:55:09.766Z,22.9
2018-09-25T10:56:04.366Z,22.9
2018-09-25T10:56:50.187Z,22.9
2018-09-25T10:57:40.997Z,22.9
2018-09-25T10:58:31.582Z,22.9
2018-09-25T10:59:21.060Z,22.8
2018-09-25T11:00:10.987Z,22.9
2018-09-25T11:01:01.342Z,22.9
2018-09-25T11:01:51.108Z,22.9
2018-09-25T11:02:40.862Z,22.9
2018-09-25T11:03:31.319Z,22.9
2018-09-25T11:04:21.274Z,22.9
2018-09-25T11:05:11.901Z,22.9
2018-09-25T11:06:01.223Z,22.9
2018-09-25T11:06:52.127Z,22.9
2018-09-25T11:07:41.826Z,22.9
2018-09-25T11:08:31.560Z,22.9
2018-09-25T11:09:21.433Z,22.9
2018-09-25T11:10:13.383Z,22.9
2018-09-25T11:11:01.428Z,22.9
2018-09-25T11:11:52.089Z,22.9
2018-09-25T11:12:41.109Z,22.9
2018-09-25T11:13:31.675Z,22.9
2018-09-25T11:14:21.509Z,22.8
2018-09-25T11:15:12.121Z,22.9
2018-09-25T11:16:02.371Z,22.9
2018-09-25T11:16:52.286Z,22.9
2018-09-25T11:17:42.001Z,22.9
2018-09-25T11:18:32.582Z,22.9
2018-09-25T11:19:22.717Z,22.9
2018-09-25T11:20:12.851Z,22.9
2018-09-25T11:21:02.639Z,22.9
2018-09-25T11:21:52.603Z,22.9
2018-09-25T11:22:42.586Z,22.9
2018-09-25T11:23:32.541Z,22.9
2018-09-25T11:24:22.750Z,22.9
2018-09-25T11:25:12.999Z,22.9
2018-09-25T11:26:02.923Z,22.9
2018-09-25T11:26:52.971Z,22.9
2018-09-25T11:27:43.285Z,22.9
2018-09-25T11:28:33.300Z,22.9
2018-09-25T11:29:22.293Z,22.9
2018-09-25T11:30:12.390Z,22.9
2018-09-25T11:31:03.850Z,22.9
2018-09-25T11:31:53.908Z,22.9
2018-09-25T11:32:42.341Z,22.9
2018-09-25T11:33:33.827Z,22.9
2018-09-25T11:34:23.535Z,22.9
2018-09-25T11:35:14.533Z,22.9
2018-09-25T11:36:03.662Z,22.9
2018-09-25T11:36:53.999Z,22.9
2018-09-25T11:37:43.999Z,22.9
2018-09-25T11:38:34.177Z,22.9
2018-09-25T11:39:24.217Z,22.9
2018-09-25T11:40:13.812Z,22.9
2018-09-25T11:41:05.326Z,22.9
2018-09-25T11:41:54.447Z,22.9
2018-09-25T11:42:45.084Z,22.9
2018-09-25T11:43:33.964Z,22.9
2018-09-25T11:44:24.839Z,22.9
2018-09-25T11:45:14.644Z,22.9
2018-09-25T11:46:05.019Z,22.9
2018-09-25T11:46:56.572Z,22.9
2018-09-25T11:47:45.089Z,23
2018-09-25T11:48:33.510Z,22.9
2018-09-25T11:49:24.944Z,22.9
2018-09-25T11:50:14.762Z,22.9
2018-09-25T11:51:04.751Z,22.9
2018-09-25T11:51:54.273Z,22.9
2018-09-25T11:52:45.959Z,23
2018-09-25T11:53:35.544Z,22.9
2018-09-25T11:54:25.038Z,22.9
2018-09-25T11:55:14.826Z,22.9
2018-09-25T11:56:04.590Z,23
2018-09-25T11:56:54.983Z,23
2018-09-25T11:57:44.571Z,23
2018-09-25T11:58:36.961Z,23
2018-09-25T11:59:25.136Z,23
2018-09-25T12:00:15.864Z,23
2018-09-25T12:01:05.630Z,23
2018-09-25T12:01:55.388Z,23
2018-09-25T12:02:45.431Z,23
2018-09-25T12:03:36.163Z,22.9
2018-09-25T12:04:25.157Z,23
2018-09-25T12:05:15.560Z,22.9
2018-09-25T12:06:05.357Z,22.9
2018-09-25T12:06:55.459Z,22.9
2018-09-25T12:07:46.347Z,22.9
2018-09-25T12:08:35.207Z,22.9
2018-09-25T12:09:24.624Z,23
2018-09-25T12:10:13.412Z,23
2018-09-25T12:11:04.855Z,23
2018-09-25T12:11:54.139Z,22.9
2018-09-25T12:12:44.734Z,22.9
2018-09-25T12:13:35.505Z,22.9
2018-09-25T12:14:24.840Z,22.9
2018-09-25T12:15:14.430Z,22.9
2018-09-25T12:16:04.777Z,22.9
2018-09-25T12:16:57.249Z,22.9
2018-09-25T12:17:47.066Z,22.8
2018-09-25T12:18:36.574Z,22.9
2018-09-25T12:19:25.849Z,22.9
2018-09-25T12:20:15.586Z,22.9
2018-09-25T12:21:06.747Z,22.9
2018-09-25T12:21:56.802Z,22.9
2018-09-25T12:22:47.182Z,22.9
2018-09-25T12:23:38.638Z,22.9
2018-09-25T12:24:28.842Z,22.8
2018-09-25T12:25:17.335Z,22.8
2018-09-25T12:26:07.711Z,22.8
2018-09-25T12:26:56.621Z,22.8
2018-09-25T12:27:47.296Z,22.8
2018-09-25T12:28:37.604Z,22.8
2018-09-25T12:29:27.373Z,22.8
2018-09-25T12:30:17.979Z,22.8
2018-09-25T12:31:07.818Z,22.8
2018-09-25T12:31:56.693Z,22.8
2018-09-25T12:32:50.826Z,22.8
2018-09-25T12:33:37.403Z,22.8
2018-09-25T12:34:27.705Z,22.7
2018-09-25T12:35:17.551Z,22.7
2018-09-25T12:36:08.138Z,22.7
2018-09-25T12:36:58.211Z,22.7
2018-09-25T12:37:48.817Z,22.7
2018-09-25T12:38:38.798Z,22.7
2018-09-25T12:39:28.363Z,22.7
2018-09-25T12:40:17.993Z,22.7
2018-09-25T12:41:09.253Z,22.6
2018-09-25T12:41:58.013Z,22.6
2018-09-25T12:42:48.913Z,22.6
2018-09-25T12:43:38.660Z,22.7
2018-09-25T12:44:28.770Z,22.7
2018-09-25T12:45:17.949Z,22.7
2018-09-25T12:46:09.180Z,22.7
2018-09-25T12:46:59.251Z,22.7
2018-09-25T12:47:48.430Z,22.7
2018-09-25T12:48:39.295Z,22.7
2018-09-25T12:49:28.015Z,22.6
2018-09-25T12:50:19.180Z,22.6
2018-09-25T12:51:08.688Z,22.6
2018-09-25T12:51:59.029Z,22.7
2018-09-25T12:52:49.657Z,22.6
2018-09-25T12:53:39.454Z,22.6
2018-09-25T12:54:29.822Z,22.6
2018-09-25T12:55:19.227Z,22.7
2018-09-25T12:56:09.341Z,22.7
2018-09-25T12:56:59.201Z,22.6
2018-09-25T12:57:50.294Z,22.7
2018-09-25T12:58:39.779Z,22.7
2018-09-25T12:59:29.894Z,22.7
2018-09-25T13:00:19.678Z,22.7
2018-09-25T13:01:09.977Z,22.6
2018-09-25T13:02:00.059Z,22.6
2018-09-25T13:02:50.144Z,22.6
2018-09-25T13:03:39.946Z,22.6
2018-09-25T13:04:29.737Z,22.6
2018-09-25T13:05:20.084Z,22.6
2018-09-25T13:06:11.015Z,22.6
2018-09-25T13:06:59.873Z,22.6
2018-09-25T13:07:50.234Z,22.6
2018-09-25T13:08:40.913Z,22.6
2018-09-25T13:09:30.902Z,22.6
2018-09-25T13:10:21.067Z,22.6
2018-09-25T13:11:10.811Z,22.6
2018-09-25T13:12:00.568Z,22.6
2018-09-25T13:12:50.053Z,22.7
2018-09-25T13:13:40.779Z,22.7
2018-09-25T13:14:30.780Z,22.7
2018-09-25T13:15:21.340Z,22.8
2018-09-25T13:16:12.416Z,22.8
2018-09-25T13:17:00.939Z,22.8
2018-09-25T13:17:51.580Z,22.8
2018-09-25T13:18:41.652Z,22.8
2018-09-25T13:19:30.023Z,22.8
2018-09-25T13:20:20.978Z,22.8
2018-09-25T13:21:12.058Z,22.8
2018-09-25T13:22:00.988Z,22.8
2018-09-25T13:22:51.952Z,22.8
2018-09-25T13:23:42.171Z,22.8
2018-09-25T13:24:31.798Z,22.8
2018-09-25T13:25:22.361Z,22.8
2018-09-25T13:26:12.137Z,22.8
2018-09-25T13:27:01.492Z,22.8
2018-09-25T13:27:52.324Z,22.8
2018-09-25T13:28:41.956Z,22.8
2018-09-25T13:29:32.561Z,22.8
2018-09-25T13:30:21.375Z,22.8
2018-09-25T13:31:12.249Z,22.8
2018-09-25T13:32:02.870Z,22.8
2018-09-25T13:32:52.360Z,22.8
2018-09-25T13:33:41.929Z,22.8
2018-09-25T13:34:32.575Z,22.8
2018-09-25T13:35:22.918Z,22.7
2018-09-25T13:36:12.055Z,22.7
2018-09-25T13:37:02.677Z,22.7
2018-09-25T13:37:52.499Z,22.7
2018-09-25T13:38:42.831Z,22.7
2018-09-25T13:39:32.843Z,22.7
2018-09-25T13:40:22.684Z,22.7
2018-09-25T13:41:13.077Z,22.7
2018-09-25T13:42:03.014Z,22.7
2018-09-25T13:42:53.442Z,22.7
2018-09-25T13:43:43.469Z,22.7
2018-09-25T13:44:32.010Z,22.7
2018-09-25T13:45:22.846Z,22.7
2018-09-25T13:46:12.834Z,22.7
2018-09-25T13:47:03.707Z,22.7
2018-09-25T13:47:53.767Z,22.6
2018-09-25T13:48:42.434Z,22.6
2018-09-25T13:49:33.947Z,22.7
2018-09-25T13:50:23.256Z,22.7
2018-09-25T13:51:13.765Z,22.6
2018-09-25T13:52:04.724Z,22.6
2018-09-25T13:52:53.064Z,22.6
2018-09-25T13:53:43.936Z,22.6
2018-09-25T13:54:33.836Z,22.6
2018-09-25T13:55:24.099Z,22.6
2018-09-25T13:56:16.185Z,22.6
2018-09-25T13:57:04.514Z,22.6